Thunder radar more information blitzortung!


Löydät sääaseman tiedot myös:

European Weather Network

Finland Weather Exchange

Weather Underground

AWEKAS



Weather Underground säähistoriasivu

Päivittäin yhteenveto Marraskuu 23, 2017 Yksiköt:  Englantilaiset    Metriset   Molemmat
« Edellinen Päivä
Seuraava Päivä »
Päivittäin Viikoittain Kuukausittain Vuosittain Mukautettu
  Korkea: Matala: Keskiarvo:
Lämpötila: TemperatureC °F -3.4 °F -0.8 °F
Kastepiste: DewpointC °F -4.4 °F -1.5 °F
Kosteus: Humidity % 93 % 94 %
Tuulen nopeus: WindSpeedKMH mph 1.6 mph 7 mph
Tuulenpuuska: WindSpeedGustKMH mph - -
Tuuli:- - SSE
Ilmanpaine: PressurehPa in 995.8 in -
Sade: 0.0 in    
Historical Graphs
 
 
Taulukkotiedot Marraskuu 23, 2017
Aika Lämpötila Kastepiste Ilmanpaine Tuuli Tuulen nopeus Tuulenpuuska Kosteus Sademäärä (tunneittain)
TemperatureC °F DewpointC °F PressurehPa in Calm     Humidity % HourlyPrecipMM in
00:15 -3.4 °F -4.4 °F 1013.4 in SE 3.2 mph 12.9 mph 93 % 0.0 in
00:45 -3.4 °F -4.4 °F 1013.4 in SSE 4.8 mph 17.7 mph 93 % 0.0 in
01:00 -3.3 °F -4.3 °F 1013.4 in SE 3.2 mph 11.3 mph 93 % 0.0 in
01:30 -3.4 °F -4.4 °F 1013.1 in South 3.2 mph 14.5 mph 93 % 0.0 in
01:45 -3.4 °F -4.4 °F 1012.8 in SSE 1.6 mph 9.7 mph 93 % 0.0 in
02:00 -3.4 °F -4.4 °F 1013.1 in SSE 1.6 mph 12.9 mph 93 % 0.0 in
02:15 -3.4 °F -4.4 °F 1012.8 in SE 3.2 mph 14.5 mph 93 % 0.0 in
02:30 -3.4 °F -4.4 °F 1012.8 in North 1.6 mph 14.5 mph 93 % 0.0 in
03:00 -3.3 °F -4.3 °F 1011.7 in SSE 3.2 mph 11.3 mph 93 % 0.0 in
03:15 -3.4 °F -4.4 °F 1011.7 in ESE 3.2 mph 12.9 mph 93 % 0.0 in
03:30 -3.4 °F -4.4 °F 1011.4 in SE 4.8 mph 20.9 mph 93 % 0.0 in
03:45 -3.4 °F -4.4 °F 1011.1 in ESE 4.8 mph 12.9 mph 93 % 0.0 in
04:00 -3.4 °F -4.4 °F 1010.7 in SSE 3.2 mph 9.7 mph 93 % 0.0 in
04:15 -3.4 °F -4.4 °F 1010.4 in SE 4.8 mph 17.7 mph 93 % 0.0 in
04:30 -3.3 °F -4.3 °F 1010.4 in SE 4.8 mph 14.5 mph 93 % 0.0 in
05:30 -2.9 °F -3.9 °F 1009.4 in SE 4.8 mph 17.7 mph 93 % 0.0 in
06:00 -2.8 °F -3.8 °F 1009.0 in SE 6.4 mph 19.3 mph 93 % 0.0 in
06:15 -2.7 °F -3.7 °F 1009.0 in SE 4.8 mph 20.9 mph 93 % 0.0 in
06:30 -2.6 °F -3.6 °F 1008.7 in SE 4.8 mph 17.7 mph 93 % 0.0 in
07:15 -2.7 °F -3.4 °F 1008.0 in ESE 4.8 mph 19.3 mph 95 % 0.0 in
07:45 -2.7 °F -3.4 °F 1007.3 in ESE 4.8 mph 20.9 mph 95 % 0.0 in
08:00 -2.8 °F -3.5 °F 1007.0 in East 4.8 mph 19.3 mph 95 % 0.0 in
08:15 -2.8 °F -3.5 °F 1007.0 in SE 4.8 mph 22.5 mph 95 % 0.0 in
08:30 -2.8 °F -3.5 °F 1006.3 in ESE 4.8 mph 11.3 mph 95 % 0.0 in
08:45 -2.8 °F -3.5 °F 1006.3 in ESE 4.8 mph 16.1 mph 95 % 0.0 in
09:00 -2.7 °F -3.4 °F 1006.0 in ESE 6.4 mph 20.9 mph 95 % 0.0 in
09:30 -2.7 °F -3.4 °F 1005.3 in SE 6.4 mph 30.6 mph 95 % 0.0 in
09:45 -2.6 °F -3.3 °F 1005.0 in ESE 6.4 mph 16.1 mph 95 % 0.0 in
10:00 -2.6 °F -3.2 °F 1004.6 in SSE 6.4 mph 20.9 mph 95 % 0.0 in
10:15 -2.6 °F -3.1 °F 1004.3 in SE 6.4 mph 14.5 mph 96 % 0.0 in
10:30 -2.5 °F -3.1 °F 1004.3 in SE 6.4 mph 19.3 mph 96 % 0.0 in
10:45 -2.4 °F -3.0 °F 1003.6 in ESE 3.2 mph 17.7 mph 96 % 0.0 in
11:00 -2.4 °F -2.9 °F 1003.6 in SE 4.8 mph 17.7 mph 96 % 0.0 in
11:15 -2.3 °F -2.8 °F 1002.9 in SSE 6.4 mph 19.3 mph 96 % 0.0 in
11:30 -2.2 °F -2.7 °F 1002.6 in SSE 6.4 mph 17.7 mph 96 % 0.0 in
11:45 -2.1 °F -2.5 °F 1002.3 in SSE 6.4 mph 25.7 mph 97 % 0.0 in
12:00 -1.9 °F -2.4 °F 1001.9 in SSE 6.4 mph 19.3 mph 97 % 0.0 in
12:15 -1.7 °F -2.1 °F 1001.6 in SSE 6.4 mph 20.9 mph 97 % 0.0 in
12:30 -1.5 °F -2.1 °F 1001.2 in SSE 9.7 mph 25.7 mph 96 % 0.0 in
12:45 -1.3 °F -1.9 °F 1001.2 in SE 8.0 mph 24.1 mph 96 % 0.0 in
13:00 -1.2 °F -1.7 °F 1000.9 in SE 8.0 mph 20.9 mph 96 % 0.0 in
13:15 -0.9 °F -1.5 °F 1000.6 in SSE 8.0 mph 27.4 mph 96 % 0.0 in
13:45 -0.4 °F -1.1 °F 1000.2 in SSE 9.7 mph 35.4 mph 95 % 0.0 in
14:00 -0.2 °F -0.9 °F 999.9 in SSE 8.0 mph 25.7 mph 95 % 0.0 in
14:15 0.1 °F -0.6 °F 999.5 in South 9.7 mph 38.6 mph 95 % 0.0 in
14:30 0.3 °F -0.4 °F 999.2 in SSE 11.3 mph 35.4 mph 95 % 0.0 in
14:45 0.3 °F -0.5 °F 999.2 in SSE 9.7 mph 33.8 mph 94 % 0.0 in
15:00 0.4 °F -0.4 °F 999.2 in South 9.7 mph 25.7 mph 94 % 0.0 in
15:15 0.5 °F -0.4 °F 998.9 in SSE 9.7 mph 27.4 mph 94 % 0.0 in
15:30 0.6 °F -0.2 °F 998.5 in SSE 11.3 mph 30.6 mph 94 % 0.0 in
15:45 0.7 °F -0.1 °F 999.2 in South 11.3 mph 25.7 mph 94 % 0.0 in
16:00 0.8 °F -0.1 °F 998.5 in South 9.7 mph 25.7 mph 94 % 0.0 in
16:15 0.8 °F 0.1 °F 998.5 in SSE 11.3 mph 35.4 mph 95 % 0.0 in
16:45 0.8 °F 0.2 °F 998.2 in SSE 8.0 mph 24.1 mph 96 % 0.0 in
17:00 0.8 °F 0.3 °F 997.9 in South 9.7 mph 30.6 mph 96 % 0.0 in
17:15 0.9 °F 0.5 °F 997.9 in SSE 9.7 mph 29.0 mph 97 % 0.0 in
17:30 1.1 °F 0.6 °F 997.9 in South 9.7 mph 24.1 mph 97 % 0.0 in
17:45 1.2 °F 0.7 °F 997.5 in SSE 9.7 mph 32.2 mph 97 % 0.0 in
18:00 1.3 °F 0.9 °F 997.5 in South 8.0 mph 19.3 mph 97 % 0.0 in
18:15 1.4 °F 1.0 °F 997.2 in South 11.3 mph 24.1 mph 97 % 0.0 in
18:30 1.5 °F 1.1 °F 997.5 in South 9.7 mph 29.0 mph 97 % 0.0 in
18:45 1.7 °F 1.2 °F 997.2 in South 8.0 mph 22.5 mph 97 % 0.0 in
19:15 1.8 °F 1.4 °F 997.2 in South 9.7 mph 22.5 mph 97 % 0.0 in
19:30 1.9 °F 1.5 °F 997.2 in South 8.0 mph 20.9 mph 97 % 0.0 in
19:45 2.0 °F 1.6 °F 996.8 in SSE 8.0 mph 22.5 mph 97 % 0.0 in
20:00 2.1 °F 1.7 °F 996.8 in South 9.7 mph 22.5 mph 97 % 0.0 in
20:30 2.3 °F 1.9 °F 996.8 in South 9.7 mph 33.8 mph 97 % 0.0 in
20:45 2.3 °F 1.9 °F 996.8 in SSE 11.3 mph 35.4 mph 97 % 0.0 in
21:00 2.3 °F 1.9 °F 997.2 in SSE 9.7 mph 32.2 mph 97 % 0.0 in
21:15 2.3 °F 1.9 °F 997.2 in South 9.7 mph 29.0 mph 97 % 0.0 in
21:30 2.3 °F 1.9 °F 997.2 in SSE 8.0 mph 25.7 mph 97 % 0.0 in
21:45 2.3 °F 1.9 °F 996.8 in SSE 8.0 mph 20.9 mph 97 % 0.0 in
22:00 2.3 °F 1.9 °F 997.2 in South 8.0 mph 25.7 mph 97 % 0.0 in
22:30 2.3 °F 1.9 °F 997.2 in South 6.4 mph 19.3 mph 97 % 0.0 in
22:45 2.3 °F 1.9 °F 997.2 in South 8.0 mph 29.0 mph 97 % 0.0 in
23:00 2.3 °F 1.9 °F 996.8 in South 9.7 mph 32.2 mph 97 % 0.0 in
23:30 2.3 °F 1.9 °F 996.2 in SSE 9.7 mph 27.4 mph 97 % 0.0 in
23:45 2.3 °F 1.9 °F 995.8 in SSE 8.0 mph 30.6 mph 97 % 0.0 in
Esan sääasema
Terveisin Weather Underground - 2.75 mb

Alkuperäinen skripti  Jim McMurry - jmcmurry@mwt.net Sovitettu myös templatelle  Wim van der Kuil - Leuven-Template.eu

Laitteet joita käytämme:

Sääasema
Davis VP2

Sääasemaohjelma
Cumulus

Sääaseman tietokone
Asus EeePC

Palveluntarjoaja
Suncomet

Davis VP2

Cumulus

Asus EeePC

Suncomet